createdAt,value
2023-05-20T00:00:01.036Z,938.47
2023-05-20T00:01:01.150Z,938.44
2023-05-20T00:02:01.169Z,938.50
2023-05-20T00:03:01.187Z,938.42
2023-05-20T00:04:01.350Z,938.46
2023-05-20T00:05:01.112Z,938.48
2023-05-20T00:06:01.099Z,938.48
2023-05-20T00:07:01.212Z,938.48
2023-05-20T00:08:01.135Z,938.46
2023-05-20T00:09:01.171Z,938.47
2023-05-20T00:10:01.187Z,938.48
2023-05-20T00:11:01.165Z,938.45
2023-05-20T00:12:01.191Z,938.44
2023-05-20T00:13:01.394Z,938.43
2023-05-20T00:14:01.213Z,938.39
2023-05-20T00:15:01.220Z,938.41
2023-05-20T00:16:01.290Z,938.39
2023-05-20T00:17:01.278Z,938.34
2023-05-20T00:18:01.295Z,938.35
2023-05-20T00:19:01.388Z,938.33
2023-05-20T00:20:01.282Z,938.28
2023-05-20T00:21:01.302Z,938.29
2023-05-20T00:22:01.306Z,938.35
2023-05-20T00:23:01.321Z,938.31
2023-05-20T00:24:01.440Z,938.36
2023-05-20T00:25:01.446Z,938.39
2023-05-20T00:26:01.357Z,938.43
2023-05-20T00:27:01.380Z,938.41
2023-05-20T00:28:01.395Z,938.42
2023-05-20T00:29:01.395Z,938.46
2023-05-20T00:30:01.516Z,938.44
2023-05-20T00:31:01.428Z,938.47
2023-05-20T00:32:01.585Z,938.47
2023-05-20T00:33:01.549Z,938.42
2023-05-20T00:34:01.467Z,938.39
2023-05-20T00:35:01.486Z,938.37
2023-05-20T00:36:01.611Z,938.36
2023-05-20T00:37:01.519Z,938.38
2023-05-20T00:38:01.523Z,938.33
2023-05-20T00:39:01.531Z,938.37
2023-05-20T00:40:01.536Z,938.38
2023-05-20T00:41:01.605Z,938.32
2023-05-20T00:42:01.672Z,938.34
2023-05-20T00:43:01.576Z,938.29
2023-05-20T00:44:01.599Z,938.31
2023-05-20T00:45:01.599Z,938.26
2023-05-20T00:46:01.661Z,938.25
2023-05-20T00:47:01.626Z,938.25
2023-05-20T00:48:01.780Z,938.29
2023-05-20T00:49:01.671Z,938.29
2023-05-20T00:50:01.673Z,938.31
2023-05-20T00:51:01.678Z,938.29
2023-05-20T00:52:01.730Z,938.25
2023-05-20T00:53:01.715Z,938.30
2023-05-20T00:54:01.820Z,938.29
2023-05-20T00:55:01.734Z,938.31
2023-05-20T00:56:01.749Z,938.34
2023-05-20T00:57:01.777Z,938.35
2023-05-20T00:58:01.782Z,938.29
2023-05-20T00:59:01.781Z,938.41
2023-05-20T01:00:01.923Z,938.36
2023-05-20T01:01:01.903Z,938.37
2023-05-20T01:02:01.912Z,938.38
2023-05-20T01:03:01.892Z,938.40
2023-05-20T01:04:01.849Z,938.42
2023-05-20T01:05:01.861Z,938.40
2023-05-20T01:06:01.976Z,938.40
2023-05-20T01:07:01.890Z,938.42
2023-05-20T01:08:01.895Z,938.40
2023-05-20T01:09:01.914Z,938.46
2023-05-20T01:10:01.923Z,938.48
2023-05-20T01:11:02.034Z,938.50
2023-05-20T01:12:01.964Z,938.51
2023-05-20T01:13:01.991Z,938.49
2023-05-20T01:14:01.969Z,938.51
2023-05-20T01:15:01.992Z,938.49
2023-05-20T01:16:02.081Z,938.49
2023-05-20T01:17:02.129Z,938.46
2023-05-20T01:18:02.126Z,938.46
2023-05-20T01:19:02.062Z,938.47
2023-05-20T01:20:02.059Z,938.49
2023-05-20T01:21:02.070Z,938.50
2023-05-20T01:22:02.171Z,938.53
2023-05-20T01:23:02.094Z,938.54
2023-05-20T01:24:02.103Z,938.52
2023-05-20T01:25:02.117Z,938.54
2023-05-20T01:26:02.129Z,938.56
2023-05-20T01:27:02.136Z,938.56
2023-05-20T01:28:02.255Z,938.57
2023-05-20T01:29:02.197Z,938.54
2023-05-20T01:30:02.209Z,938.53
2023-05-20T01:31:02.231Z,938.54
2023-05-20T01:32:02.206Z,938.51
2023-05-20T01:33:02.260Z,938.50
2023-05-20T01:34:02.336Z,938.54
2023-05-20T01:35:02.249Z,938.51
2023-05-20T01:36:02.249Z,938.54
2023-05-20T01:37:02.262Z,938.55
2023-05-20T01:38:02.281Z,938.47
2023-05-20T01:39:02.306Z,938.49
2023-05-20T01:40:02.411Z,938.52
2023-05-20T01:41:02.313Z,938.47
2023-05-20T01:42:02.341Z,938.46
2023-05-20T01:43:02.346Z,938.42
2023-05-20T01:44:02.356Z,938.37
2023-05-20T01:45:02.404Z,938.38
2023-05-20T01:46:02.485Z,938.38
2023-05-20T01:47:02.500Z,938.34
2023-05-20T01:48:02.459Z,938.36
2023-05-20T01:49:02.417Z,938.32
2023-05-20T01:50:02.429Z,938.33
2023-05-20T01:51:02.448Z,938.39
2023-05-20T01:52:02.557Z,938.34
2023-05-20T01:53:02.469Z,938.36
2023-05-20T01:54:02.475Z,938.31
2023-05-20T01:55:02.529Z,938.33
2023-05-20T01:56:02.512Z,938.35
2023-05-20T01:57:02.526Z,938.39
2023-05-20T01:58:02.645Z,938.34
2023-05-20T01:59:02.558Z,938.35
2023-05-20T02:00:02.563Z,938.35
2023-05-20T02:01:02.621Z,938.37
2023-05-20T02:02:02.627Z,938.36
2023-05-20T02:03:02.644Z,938.34
2023-05-20T02:04:02.723Z,938.35
2023-05-20T02:05:02.644Z,938.37
2023-05-20T02:06:02.729Z,938.36
2023-05-20T02:07:02.649Z,938.35
2023-05-20T02:08:02.657Z,938.36
2023-05-20T02:09:02.771Z,938.36
2023-05-20T02:10:02.698Z,938.32
2023-05-20T02:11:02.697Z,938.31
2023-05-20T02:12:02.709Z,938.31
2023-05-20T02:13:02.735Z,938.32
2023-05-20T02:14:02.748Z,938.36
2023-05-20T02:15:02.871Z,938.37
2023-05-20T02:16:02.784Z,938.41
2023-05-20T02:17:02.811Z,938.39
2023-05-20T02:18:02.849Z,938.40
2023-05-20T02:19:02.816Z,938.41
2023-05-20T02:20:02.932Z,938.42
2023-05-20T02:21:02.827Z,938.41
2023-05-20T02:22:02.840Z,938.42
2023-05-20T02:23:02.860Z,938.40
2023-05-20T02:24:02.881Z,938.42
2023-05-20T02:25:02.885Z,938.38
2023-05-20T02:26:02.992Z,938.38
2023-05-20T02:27:02.916Z,938.37
2023-05-20T02:28:02.917Z,938.41
2023-05-20T02:29:02.936Z,938.43
2023-05-20T02:30:02.953Z,938.40
2023-05-20T02:31:02.962Z,938.39
2023-05-20T02:32:03.078Z,938.42
2023-05-20T02:33:03.063Z,938.42
2023-05-20T02:34:03.070Z,938.40
2023-05-20T02:35:03.012Z,938.37
2023-05-20T02:36:03.025Z,938.36
2023-05-20T02:37:03.036Z,938.34
2023-05-20T02:38:03.148Z,938.33
2023-05-20T02:39:03.087Z,938.33
2023-05-20T02:40:03.084Z,938.36
2023-05-20T02:41:03.082Z,938.34
2023-05-20T02:42:03.093Z,938.34
2023-05-20T02:43:03.225Z,938.36
2023-05-20T02:44:03.119Z,938.33
2023-05-20T02:45:03.151Z,938.33
2023-05-20T02:46:03.155Z,938.38
2023-05-20T02:47:03.167Z,938.35
2023-05-20T02:48:03.237Z,938.34
2023-05-20T02:49:03.303Z,938.30
2023-05-20T02:50:03.207Z,938.28
2023-05-20T02:51:03.209Z,938.29
2023-05-20T02:52:03.222Z,938.24
2023-05-20T02:53:03.241Z,938.21
2023-05-20T02:54:03.253Z,938.24
2023-05-20T02:55:03.365Z,938.18
2023-05-20T02:56:03.278Z,938.20
2023-05-20T02:57:03.290Z,938.17
2023-05-20T02:58:03.301Z,938.14
2023-05-20T02:59:03.310Z,938.12
2023-05-20T03:00:03.328Z,938.13
2023-05-20T03:01:03.455Z,938.10
2023-05-20T03:02:03.357Z,938.09
2023-05-20T03:03:03.439Z,938.10
2023-05-20T03:04:03.438Z,938.10
2023-05-20T03:05:03.421Z,938.10
2023-05-20T03:06:03.494Z,938.10
2023-05-20T03:07:03.409Z,938.12
2023-05-20T03:08:03.423Z,938.12
2023-05-20T03:09:03.442Z,938.14
2023-05-20T03:10:03.450Z,938.07
2023-05-20T03:11:04.867Z,938.08
2023-05-20T03:12:03.587Z,938.07
2023-05-20T03:13:03.486Z,938.11
2023-05-20T03:14:03.504Z,938.09
2023-05-20T03:15:03.527Z,938.10
2023-05-20T03:16:03.599Z,938.12
2023-05-20T03:17:03.537Z,938.12
2023-05-20T03:18:03.685Z,938.09
2023-05-20T03:19:03.609Z,938.08
2023-05-20T03:20:03.586Z,938.01
2023-05-20T03:21:03.619Z,938.04
2023-05-20T03:22:03.599Z,938.02
2023-05-20T03:23:03.711Z,938.06
2023-05-20T03:24:03.638Z,938.05
2023-05-20T03:25:03.641Z,938.04
2023-05-20T03:26:03.660Z,938.03
2023-05-20T03:27:03.666Z,938.06
2023-05-20T03:28:03.816Z,938.08
2023-05-20T03:29:03.695Z,938.08
2023-05-20T03:30:03.697Z,938.07
2023-05-20T03:31:03.745Z,938.10
2023-05-20T03:32:03.729Z,938.06
2023-05-20T03:33:03.757Z,938.07
2023-05-20T03:34:03.853Z,938.08
2023-05-20T03:35:03.767Z,938.07
2023-05-20T03:36:03.797Z,938.07
2023-05-20T03:37:03.800Z,938.07
2023-05-20T03:38:03.811Z,938.07
2023-05-20T03:39:03.816Z,938.05
2023-05-20T03:40:03.939Z,938.07
2023-05-20T03:41:03.849Z,938.03
2023-05-20T03:42:03.850Z,938.05
2023-05-20T03:43:03.856Z,938.03
2023-05-20T03:44:03.879Z,938.04
2023-05-20T03:45:03.886Z,938.06
2023-05-20T03:46:04.012Z,938.05
2023-05-20T03:47:03.997Z,938.05
2023-05-20T03:48:03.962Z,938.05
2023-05-20T03:49:03.935Z,938.08
2023-05-20T03:50:03.967Z,938.09
2023-05-20T03:51:03.965Z,938.06
2023-05-20T03:52:04.079Z,938.02
2023-05-20T03:53:04.016Z,938.03
2023-05-20T03:54:04.015Z,938.04
2023-05-20T03:55:04.028Z,938.04
2023-05-20T03:56:04.026Z,938.02
2023-05-20T03:57:04.042Z,938.02
2023-05-20T03:58:04.149Z,938.07
2023-05-20T03:59:04.068Z,938.09
2023-05-20T04:00:04.094Z,938.08
2023-05-20T04:01:04.087Z,938.10
2023-05-20T04:02:04.140Z,938.12
2023-05-20T04:03:04.322Z,938.11
2023-05-20T04:04:04.168Z,938.10
2023-05-20T04:05:04.134Z,938.11
2023-05-20T04:06:04.156Z,938.08
2023-05-20T04:07:04.161Z,938.11
2023-05-20T04:08:04.285Z,938.10
2023-05-20T04:09:04.201Z,938.10
2023-05-20T04:10:04.203Z,938.12
2023-05-20T04:11:04.219Z,938.12
2023-05-20T04:12:04.223Z,938.13
2023-05-20T04:13:04.351Z,938.11
2023-05-20T04:14:04.253Z,938.13
2023-05-20T04:15:04.272Z,938.06
2023-05-20T04:16:04.301Z,938.09
2023-05-20T04:17:04.401Z,938.04
2023-05-20T04:18:04.378Z,938.05
2023-05-20T04:19:04.438Z,938.00
2023-05-20T04:20:04.330Z,938.01
2023-05-20T04:21:04.334Z,937.97
2023-05-20T04:22:04.348Z,937.98
2023-05-20T04:23:04.382Z,937.95
2023-05-20T04:24:04.480Z,937.96
2023-05-20T04:25:04.415Z,937.95
2023-05-20T04:26:04.409Z,937.97
2023-05-20T04:27:04.416Z,937.97
2023-05-20T04:28:04.436Z,937.97
2023-05-20T04:29:04.441Z,937.91
2023-05-20T04:30:04.567Z,937.90
2023-05-20T04:31:04.528Z,937.90
2023-05-20T04:32:04.549Z,937.92
2023-05-20T04:33:04.597Z,937.91
2023-05-20T04:34:04.561Z,937.91
2023-05-20T04:35:04.620Z,937.93
2023-05-20T04:36:04.545Z,937.92
2023-05-20T04:37:04.547Z,937.93
2023-05-20T04:38:04.571Z,937.90
2023-05-20T04:39:04.570Z,937.90
2023-05-20T04:40:04.576Z,937.90
2023-05-20T04:41:04.710Z,937.89
2023-05-20T04:42:04.598Z,937.88
2023-05-20T04:43:04.615Z,937.88
2023-05-20T04:44:04.626Z,937.85
2023-05-20T04:45:04.643Z,937.85
2023-05-20T04:46:04.680Z,937.89
2023-05-20T04:47:04.768Z,937.86
2023-05-20T04:48:04.713Z,937.82
2023-05-20T04:49:04.702Z,937.79
2023-05-20T04:50:04.696Z,937.80
2023-05-20T04:51:04.720Z,937.79
2023-05-20T04:52:04.729Z,937.79
2023-05-20T04:53:04.848Z,937.78
2023-05-20T04:54:04.755Z,937.77
2023-05-20T04:55:04.759Z,937.77
2023-05-20T04:56:04.781Z,937.77
2023-05-20T04:57:04.822Z,937.74
2023-05-20T04:58:04.906Z,937.76
2023-05-20T04:59:04.816Z,937.73
2023-05-20T05:00:04.826Z,937.75
2023-05-20T05:01:04.857Z,937.78
2023-05-20T05:02:04.848Z,937.76
2023-05-20T05:03:04.893Z,937.79
2023-05-20T05:04:04.992Z,937.77
2023-05-20T05:05:04.985Z,937.80
2023-05-20T05:06:04.897Z,937.78
2023-05-20T05:07:04.921Z,937.77
2023-05-20T05:08:04.931Z,937.74
2023-05-20T05:09:04.962Z,937.76
2023-05-20T05:10:05.059Z,937.75
2023-05-20T05:11:04.963Z,937.80
2023-05-20T05:12:04.984Z,937.79
2023-05-20T05:13:05.008Z,937.76
2023-05-20T05:14:05.000Z,937.75
2023-05-20T05:15:05.120Z,937.77
2023-05-20T05:16:05.070Z,937.73
2023-05-20T05:17:05.075Z,937.72
2023-05-20T05:18:05.095Z,937.71
2023-05-20T05:19:05.131Z,937.68
2023-05-20T05:20:05.175Z,937.68
2023-05-20T05:21:05.108Z,937.71
2023-05-20T05:22:05.110Z,937.70
2023-05-20T05:23:05.124Z,937.70
2023-05-20T05:24:05.125Z,937.69
2023-05-20T05:25:05.137Z,937.67
2023-05-20T05:26:05.268Z,937.70
2023-05-20T05:27:05.163Z,937.72
2023-05-20T05:28:05.181Z,937.69
2023-05-20T05:29:05.218Z,937.72
2023-05-20T05:30:05.213Z,937.74
2023-05-20T05:31:05.219Z,937.73
2023-05-20T05:32:05.426Z,937.70
2023-05-20T05:33:05.306Z,937.70
2023-05-20T05:34:05.252Z,937.72
2023-05-20T05:35:07.358Z,937.68
2023-05-20T05:36:05.275Z,937.71
2023-05-20T05:37:05.294Z,937.73
2023-05-20T05:38:05.398Z,937.70
2023-05-20T05:39:05.312Z,937.71
2023-05-20T05:40:05.330Z,937.69
2023-05-20T05:41:05.345Z,937.74
2023-05-20T05:42:05.353Z,937.73
2023-05-20T05:43:05.458Z,937.74
2023-05-20T05:44:05.371Z,937.72
2023-05-20T05:45:05.415Z,937.78
2023-05-20T05:46:05.422Z,937.74
2023-05-20T05:47:05.460Z,937.74
2023-05-20T05:48:05.465Z,937.70
2023-05-20T05:49:05.738Z,937.68
2023-05-20T05:50:05.461Z,937.59
2023-05-20T05:51:05.473Z,937.58
2023-05-20T05:52:05.468Z,937.57
2023-05-20T05:53:05.488Z,937.57
2023-05-20T05:54:05.590Z,937.59
2023-05-20T05:55:05.505Z,937.59
2023-05-20T05:56:05.525Z,937.58
2023-05-20T05:57:06.577Z,937.58
2023-05-20T05:58:05.544Z,937.62
2023-05-20T05:59:05.578Z,937.60
2023-05-20T06:00:05.668Z,937.59
2023-05-20T06:01:05.636Z,937.59
2023-05-20T06:02:05.633Z,937.56
2023-05-20T06:03:05.685Z,937.54
2023-05-20T06:04:05.666Z,937.54
2023-05-20T06:05:05.747Z,937.53
2023-05-20T06:06:05.650Z,937.55
2023-05-20T06:07:05.657Z,937.54
2023-05-20T06:08:05.678Z,937.53
2023-05-20T06:09:05.684Z,937.54
2023-05-20T06:10:05.689Z,937.55
2023-05-20T06:11:05.923Z,937.57
2023-05-20T06:12:05.711Z,937.56
2023-05-20T06:13:05.732Z,937.58
2023-05-20T06:14:05.742Z,937.54
2023-05-20T06:15:05.750Z,937.53
2023-05-20T06:16:05.779Z,937.54
2023-05-20T06:17:05.968Z,937.49
2023-05-20T06:18:05.812Z,937.50
2023-05-20T06:19:05.818Z,937.47
2023-05-20T06:20:05.826Z,937.47
2023-05-20T06:21:05.832Z,937.49
2023-05-20T06:22:05.856Z,937.51
2023-05-20T06:23:05.948Z,937.46
2023-05-20T06:24:05.866Z,937.50
2023-05-20T06:25:05.900Z,937.49
2023-05-20T06:26:05.909Z,937.51
2023-05-20T06:27:05.901Z,937.49
2023-05-20T06:28:05.911Z,937.47
2023-05-20T06:29:06.035Z,937.49
2023-05-20T06:30:05.939Z,937.49
2023-05-20T06:31:06.003Z,937.45
2023-05-20T06:32:05.960Z,937.45
2023-05-20T06:33:06.157Z,937.47
2023-05-20T06:34:05.987Z,937.50
2023-05-20T06:35:06.098Z,937.50
2023-05-20T06:36:06.031Z,937.49
2023-05-20T06:37:06.022Z,937.52
2023-05-20T06:38:06.184Z,937.51
2023-05-20T06:39:06.450Z,937.46
2023-05-20T06:40:06.060Z,937.50
2023-05-20T06:41:06.184Z,937.47
2023-05-20T06:42:06.286Z,937.48
2023-05-20T06:43:06.100Z,937.45
2023-05-20T06:44:06.115Z,937.47
2023-05-20T06:45:06.123Z,937.45
2023-05-20T06:46:06.167Z,937.47
2023-05-20T06:47:06.245Z,937.49
2023-05-20T06:48:06.208Z,937.46
2023-05-20T06:49:06.213Z,937.46
2023-05-20T06:50:06.180Z,937.47
2023-05-20T06:51:06.202Z,937.48
2023-05-20T06:52:06.226Z,937.46
2023-05-20T06:53:06.320Z,937.44
2023-05-20T06:54:06.240Z,937.47
2023-05-20T06:55:06.261Z,937.45
2023-05-20T06:56:06.264Z,937.46
2023-05-20T06:57:06.278Z,937.46
2023-05-20T06:58:06.283Z,937.41
2023-05-20T06:59:06.393Z,937.42
2023-05-20T07:00:06.307Z,937.45
2023-05-20T07:01:06.324Z,937.38
2023-05-20T07:02:06.448Z,937.40
2023-05-20T07:03:06.391Z,937.41
2023-05-20T07:04:06.394Z,937.35
2023-05-20T07:05:06.523Z,937.33
2023-05-20T07:06:06.385Z,937.34
2023-05-20T07:07:06.389Z,937.35
2023-05-20T07:08:06.406Z,937.33
2023-05-20T07:09:06.416Z,937.35
2023-05-20T07:10:06.439Z,937.32
2023-05-20T07:11:06.545Z,937.34
2023-05-20T07:12:06.469Z,937.34
2023-05-20T07:13:06.469Z,937.33
2023-05-20T07:14:06.481Z,937.32
2023-05-20T07:15:06.501Z,937.32
2023-05-20T07:16:06.674Z,937.34
2023-05-20T07:17:06.530Z,937.34
2023-05-20T07:18:06.637Z,937.31
2023-05-20T07:19:06.601Z,937.34
2023-05-20T07:20:06.581Z,937.32
2023-05-20T07:21:06.614Z,937.34
2023-05-20T07:22:06.672Z,937.34
2023-05-20T07:23:06.589Z,937.31
2023-05-20T07:24:06.597Z,937.34
2023-05-20T07:25:06.610Z,937.30
2023-05-20T07:26:06.622Z,937.34
2023-05-20T07:27:06.735Z,937.31
2023-05-20T07:28:06.648Z,937.34
2023-05-20T07:29:06.670Z,937.32
2023-05-20T07:30:06.679Z,937.37
2023-05-20T07:31:06.691Z,937.36
2023-05-20T07:32:06.767Z,937.36
2023-05-20T07:33:06.865Z,937.37
2023-05-20T07:34:06.721Z,937.38
2023-05-20T07:35:06.737Z,937.37
2023-05-20T07:36:09.122Z,937.31
2023-05-20T07:37:06.791Z,937.35
2023-05-20T07:38:06.783Z,937.36
2023-05-20T07:39:09.617Z,937.36
2023-05-20T07:40:06.801Z,937.36
2023-05-20T07:41:06.809Z,937.40
2023-05-20T07:42:06.815Z,937.38
2023-05-20T07:43:06.842Z,937.38
2023-05-20T07:44:06.849Z,937.36
2023-05-20T07:45:06.956Z,937.41
2023-05-20T07:46:06.887Z,937.39
2023-05-20T07:47:06.877Z,937.39
2023-05-20T07:48:06.942Z,937.41
2023-05-20T07:49:06.915Z,937.42
2023-05-20T07:50:07.039Z,937.43
2023-05-20T07:51:06.935Z,937.42
2023-05-20T07:52:06.939Z,937.40
2023-05-20T07:53:06.974Z,937.44
2023-05-20T07:54:06.973Z,937.44
2023-05-20T07:55:06.983Z,937.46
2023-05-20T07:56:07.096Z,937.49
2023-05-20T07:57:07.007Z,937.49
2023-05-20T07:58:07.064Z,937.49
2023-05-20T07:59:07.026Z,937.54
2023-05-20T08:00:07.047Z,937.55
2023-05-20T08:01:07.050Z,937.53
2023-05-20T08:02:07.269Z,937.55
2023-05-20T08:03:07.236Z,937.55
2023-05-20T08:04:07.132Z,937.56
2023-05-20T08:05:07.115Z,937.61
2023-05-20T08:06:07.108Z,937.62
2023-05-20T08:07:07.122Z,937.62
2023-05-20T08:08:07.233Z,937.70
2023-05-20T08:09:07.169Z,937.68
2023-05-20T08:10:07.171Z,937.70
2023-05-20T08:11:07.178Z,937.71
2023-05-20T08:12:07.186Z,937.76
2023-05-20T08:13:07.299Z,937.77
2023-05-20T08:14:07.209Z,937.85
2023-05-20T08:15:07.225Z,937.85
2023-05-20T08:16:07.232Z,937.83
2023-05-20T08:17:07.301Z,937.90
2023-05-20T08:18:07.308Z,937.93
2023-05-20T08:19:07.399Z,937.91
2023-05-20T08:20:07.286Z,937.85
2023-05-20T08:21:07.291Z,937.84
2023-05-20T08:22:07.303Z,937.85
2023-05-20T08:23:07.326Z,937.87
2023-05-20T08:24:07.345Z,937.88
2023-05-20T08:25:07.468Z,937.86
2023-05-20T08:26:07.351Z,937.88
2023-05-20T08:27:07.364Z,937.91
2023-05-20T08:28:07.384Z,937.90
2023-05-20T08:29:07.399Z,937.98
2023-05-20T08:30:07.511Z,938.04
2023-05-20T08:31:07.439Z,938.00
2023-05-20T08:32:07.431Z,938.04
2023-05-20T08:33:07.521Z,938.07
2023-05-20T08:34:07.454Z,938.01
2023-05-20T08:35:07.459Z,938.05
2023-05-20T08:36:07.579Z,938.05
2023-05-20T08:37:07.508Z,938.01
2023-05-20T08:38:07.512Z,938.01
2023-05-20T08:39:07.510Z,938.00
2023-05-20T08:40:07.533Z,937.99
2023-05-20T08:41:07.663Z,938.00
2023-05-20T08:42:07.550Z,937.93
2023-05-20T08:43:07.570Z,937.91
2023-05-20T08:44:07.575Z,937.94
2023-05-20T08:45:07.587Z,937.89
2023-05-20T08:46:07.688Z,937.87
2023-05-20T08:47:07.720Z,937.94
2023-05-20T08:48:07.748Z,937.90
2023-05-20T08:49:07.638Z,937.95
2023-05-20T08:50:07.661Z,937.97
2023-05-20T08:51:07.656Z,937.95
2023-05-20T08:52:07.771Z,937.95
2023-05-20T08:53:07.688Z,937.93
2023-05-20T08:54:07.712Z,937.92
2023-05-20T08:55:07.711Z,937.87
2023-05-20T08:56:07.723Z,937.94
2023-05-20T08:57:07.750Z,937.95
2023-05-20T08:58:07.848Z,937.97
2023-05-20T08:59:07.754Z,937.98
2023-05-20T09:00:07.765Z,937.96
2023-05-20T09:01:07.788Z,937.96
2023-05-20T09:02:07.923Z,937.95
2023-05-20T09:03:07.975Z,937.96
2023-05-20T09:04:07.828Z,937.96
2023-05-20T09:05:07.894Z,937.95
2023-05-20T09:06:07.839Z,937.98
2023-05-20T09:07:07.857Z,937.99
2023-05-20T09:08:07.976Z,937.97
2023-05-20T09:09:07.896Z,937.97
2023-05-20T09:10:07.892Z,937.98
2023-05-20T09:11:08.107Z,938.01
2023-05-20T09:12:07.920Z,938.00
2023-05-20T09:13:07.946Z,938.01
2023-05-20T09:14:08.036Z,938.02
2023-05-20T09:15:07.948Z,938.00
2023-05-20T09:16:07.975Z,938.01
2023-05-20T09:17:07.972Z,938.00
2023-05-20T09:18:08.139Z,938.02
2023-05-20T09:19:08.117Z,938.00
2023-05-20T09:20:08.005Z,938.03
2023-05-20T09:21:08.038Z,938.05
2023-05-20T09:22:08.046Z,937.99
2023-05-20T09:23:08.048Z,938.04
2023-05-20T09:24:08.056Z,938.01
2023-05-20T09:25:08.203Z,938.02
2023-05-20T09:26:08.086Z,938.02
2023-05-20T09:27:08.099Z,938.07
2023-05-20T09:28:08.118Z,938.04
2023-05-20T09:29:08.140Z,938.01
2023-05-20T09:30:08.136Z,938.03
2023-05-20T09:31:08.243Z,938.02
2023-05-20T09:32:08.195Z,938.03
2023-05-20T09:33:08.197Z,938.00
2023-05-20T09:34:08.220Z,937.97
2023-05-20T09:35:08.182Z,937.95
2023-05-20T09:36:08.195Z,937.98
2023-05-20T09:37:08.316Z,937.96
2023-05-20T09:38:08.228Z,937.92
2023-05-20T09:39:08.242Z,937.96
2023-05-20T09:40:08.243Z,937.93
2023-05-20T09:41:08.316Z,937.96
2023-05-20T09:42:08.273Z,937.97
2023-05-20T09:43:08.395Z,937.95
2023-05-20T09:44:08.304Z,937.96
2023-05-20T09:45:08.365Z,937.98
2023-05-20T09:46:08.385Z,937.96
2023-05-20T09:47:08.667Z,938.03
2023-05-20T09:48:08.481Z,938.00
2023-05-20T09:49:08.349Z,938.03
2023-05-20T09:50:08.435Z,938.04
2023-05-20T09:51:08.435Z,938.03
2023-05-20T09:52:08.387Z,937.98
2023-05-20T09:53:08.508Z,938.03
2023-05-20T09:54:08.538Z,938.01
2023-05-20T09:55:08.433Z,938.03
2023-05-20T09:56:08.464Z,937.98
2023-05-20T09:57:08.465Z,937.95
2023-05-20T09:58:08.567Z,937.96
2023-05-20T09:59:08.480Z,937.99
2023-05-20T10:00:08.495Z,937.99
2023-05-20T10:01:08.554Z,938.00
2023-05-20T10:02:08.560Z,937.99
2023-05-20T10:03:08.613Z,937.96
2023-05-20T10:04:08.676Z,937.98
2023-05-20T10:05:08.548Z,937.99
2023-05-20T10:06:08.558Z,937.99
2023-05-20T10:07:08.574Z,937.97
2023-05-20T10:08:08.590Z,937.93
2023-05-20T10:09:08.694Z,938.00
2023-05-20T10:10:08.612Z,937.97
2023-05-20T10:11:08.624Z,937.95
2023-05-20T10:12:08.636Z,937.96
2023-05-20T10:13:08.649Z,937.91
2023-05-20T10:14:08.762Z,937.98
2023-05-20T10:15:08.671Z,937.96
2023-05-20T10:16:08.736Z,938.00
2023-05-20T10:17:08.724Z,937.99
2023-05-20T10:18:08.714Z,937.96
2023-05-20T10:19:08.883Z,937.96
2023-05-20T10:20:08.732Z,937.95
2023-05-20T10:21:08.748Z,937.99
2023-05-20T10:22:08.829Z,937.99
2023-05-20T10:23:08.768Z,937.98
2023-05-20T10:24:08.899Z,937.99
2023-05-20T10:25:08.800Z,937.97
2023-05-20T10:26:08.803Z,938.06
2023-05-20T10:27:08.836Z,938.05
2023-05-20T10:28:08.835Z,938.03
2023-05-20T10:29:11.481Z,938.06
2023-05-20T10:30:08.952Z,938.11
2023-05-20T10:31:08.864Z,938.09
2023-05-20T10:32:08.944Z,938.12
2023-05-20T10:33:09.140Z,938.16
2023-05-20T10:34:08.891Z,938.18
2023-05-20T10:35:08.911Z,938.20
2023-05-20T10:36:09.019Z,938.20
2023-05-20T10:37:08.926Z,938.17
2023-05-20T10:38:08.940Z,938.23
2023-05-20T10:39:08.950Z,938.25
2023-05-20T10:40:08.963Z,938.25
2023-05-20T10:41:08.983Z,938.23
2023-05-20T10:42:09.092Z,938.26
2023-05-20T10:43:09.005Z,938.28
2023-05-20T10:44:09.008Z,938.30
2023-05-20T10:45:09.036Z,938.30
2023-05-20T10:46:17.096Z,938.34
2023-05-20T10:47:24.686Z,938.34
2023-05-20T10:48:09.118Z,938.39
2023-05-20T10:49:09.299Z,938.40
2023-05-20T10:50:09.088Z,938.42
2023-05-20T10:51:09.100Z,938.43
2023-05-20T10:52:09.110Z,938.44
2023-05-20T10:53:15.790Z,938.49
2023-05-20T10:54:09.126Z,938.49
2023-05-20T10:55:09.153Z,938.51
2023-05-20T10:56:09.150Z,938.52
2023-05-20T10:57:09.172Z,938.54
2023-05-20T10:58:09.176Z,938.54
2023-05-20T10:59:09.299Z,938.54
2023-05-20T11:00:09.222Z,938.52
2023-05-20T11:01:09.261Z,938.58
2023-05-20T11:02:09.229Z,938.56
2023-05-20T11:03:09.286Z,938.58
2023-05-20T11:04:09.493Z,938.59
2023-05-20T11:05:09.380Z,938.59
2023-05-20T11:06:09.277Z,938.59
2023-05-20T11:07:09.291Z,938.56
2023-05-20T11:08:20.594Z,938.61
2023-05-20T11:09:09.311Z,938.57
2023-05-20T11:10:09.329Z,938.59
2023-05-20T11:11:09.449Z,938.57
2023-05-20T11:12:09.354Z,938.57
2023-05-20T11:13:09.411Z,938.59
2023-05-20T11:14:09.409Z,938.64
2023-05-20T11:15:09.388Z,938.66
2023-05-20T11:16:09.543Z,938.66
2023-05-20T11:17:09.435Z,938.68
2023-05-20T11:18:09.463Z,938.70
2023-05-20T11:19:09.517Z,938.67
2023-05-20T11:20:09.452Z,938.67
2023-05-20T11:21:09.509Z,938.71
2023-05-20T11:22:09.639Z,938.75
2023-05-20T11:23:09.490Z,938.76
2023-05-20T11:24:09.510Z,938.75
2023-05-20T11:25:09.496Z,938.75
2023-05-20T11:26:09.521Z,938.75
2023-05-20T11:27:09.549Z,938.75
2023-05-20T11:28:09.665Z,938.78
2023-05-20T11:29:09.553Z,938.75
2023-05-20T11:30:09.575Z,938.80
2023-05-20T11:31:09.570Z,938.84
2023-05-20T11:32:09.645Z,938.84
2023-05-20T11:33:09.654Z,938.84
2023-05-20T11:34:09.718Z,938.82
2023-05-20T11:35:09.627Z,938.84
2023-05-20T11:36:23.937Z,938.87
2023-05-20T11:37:09.872Z,938.85
2023-05-20T11:38:09.658Z,938.86
2023-05-20T11:39:09.792Z,938.85
2023-05-20T11:40:09.761Z,938.88
2023-05-20T11:41:09.701Z,938.89
2023-05-20T11:42:09.698Z,938.86
2023-05-20T11:43:09.827Z,938.91
2023-05-20T11:44:09.840Z,938.90
2023-05-20T11:45:09.739Z,938.92
2023-05-20T11:46:09.842Z,938.92
2023-05-20T11:47:09.836Z,938.96
2023-05-20T11:48:09.822Z,938.98
2023-05-20T11:49:09.916Z,938.99
2023-05-20T11:50:09.896Z,938.99
2023-05-20T11:51:09.829Z,939.01
2023-05-20T11:52:09.851Z,939.02
2023-05-20T11:53:09.927Z,938.99
2023-05-20T11:54:09.850Z,939.00
2023-05-20T11:55:09.907Z,938.97
2023-05-20T11:56:09.968Z,939.01
2023-05-20T11:57:09.966Z,939.00
2023-05-20T11:58:09.933Z,938.99
2023-05-20T11:59:09.956Z,938.99
2023-05-20T12:00:09.986Z,938.98
2023-05-20T12:01:21.681Z,939.00
2023-05-20T12:02:10.094Z,938.99
2023-05-20T12:03:10.180Z,938.97
2023-05-20T12:04:10.231Z,938.96
2023-05-20T12:05:10.060Z,938.99
2023-05-20T12:06:09.993Z,939.00
2023-05-20T12:07:10.100Z,939.01
2023-05-20T12:08:10.064Z,938.99
2023-05-20T12:09:10.057Z,938.97
2023-05-20T12:10:10.082Z,939.01
2023-05-20T12:11:10.084Z,938.97
2023-05-20T12:12:10.085Z,938.98
2023-05-20T12:13:10.166Z,939.00
2023-05-20T12:14:10.140Z,938.98
2023-05-20T12:15:10.122Z,939.01
2023-05-20T12:16:10.216Z,939.01
2023-05-20T12:17:10.117Z,939.04
2023-05-20T12:18:10.366Z,939.06
2023-05-20T12:19:10.230Z,939.03
2023-05-20T12:20:10.184Z,939.06
2023-05-20T12:21:10.169Z,939.07
2023-05-20T12:22:10.170Z,939.07
2023-05-20T12:23:10.236Z,939.08
2023-05-20T12:24:10.307Z,939.09
2023-05-20T12:25:10.233Z,939.08
2023-05-20T12:26:10.232Z,939.07
2023-05-20T12:27:10.249Z,939.03
2023-05-20T12:28:10.240Z,939.04